« 冬日 大阪国際空港 2015/12/7 mon | トップページ | 撮納 富山空港 2015/12/30 wed »

2015/12/22

冬日2 大阪国際空港 2015/12/7 mon

その1からつづき

RJOO 070100Z VRB05KT 9999 FEW030 12/01 Q1027 RMK 1CU030 A3034

20151207_rjoo_50ja852a

ANA524 RJFT-RJOO JA852A DHC8-402Q

20151207_rjoo_51ja8322

ANA733 RJSS-RJOO JA8322 B767-381

20151207_rjoo_52ja216j

JAL2402 RJFK-RJOO JA216J ERJ-170STD

20151207_rjoo_53ja213j

ANA2373 RJOO-RJFU JA213J ERJ-170STD

20151207_rjoo_54ja03rj

IBX42 RJFO-RJOO JA03RJ CRJ-200ER

20151207_rjoo_55ja213j

JAL2373 RJOO-RJFU JA213J ERJ-170STD

20151207_rjoo_56ja843a

ANA1605 RJOO-RJOK JA843A DHC8-402Q

20151207_rjoo_57ja849c

JAC2453 RJFC-RJOO JA849C DHC8-402Q

20151207_rjoo_58ja8399

20151207_rjoo_59ja8399

JAL111 RJTT-RJOO JA8399 B767-346

20151207_rjoo_60ja8196

ANA543 RJOO-RJFK JA8196 B737-54K

20151207_rjoo_61ja8984

JAL112 RJOO-RJTT JA8984 B777-246

20151207_rjoo_62ja81an

ANA1605 RJOO-RJOK JA81AN B737-881

20151207_rjoo_63itm

こんなかわいいスイーパーも

20151207_rjoo_64ja06rj

IBX55 RJOO-RJFF JA06RJ CRJ-702ER

20151207_rjoo_65ja8984

JAL112 RJOO-RJTT JA8984 B777-246

20151207_rjoo_66ja218j

JAL2243 RJOO-RJSN JA218J ERJ-170STD

20151207_rjoo_67ja205j

JAL2153 RJOO-RJSA JA205J CRJ-200ER

20151207_rjoo_68ja76an

ANA772 RJCC-RJOO JA76AN B737-881

20151207_rjoo_69ja209j

JAL2235 RJOO-RJSC JA209J CRJ-200ER

20151207_rjoo_70jair

20151207_rjoo_71jair

20151207_rjoo_72ja852a

ANA1687 RJOO-RJFO JA852A DHC8-402Q

20151207_rjoo_73ja219j

JAL2362 RJFO-RJOO JA219J ERJ-170STD

20151207_rjoo_74ja224j

JAL2285 RJOO-RJFT JA224J ERJ-170STD

20151207_rjoo_75ja343j

JAL2000 RJCC-RJOO JA343J B737-846

20151207_rjoo_76ja222j

JAL2385 RJOO-RJFT JA222J ERJ-170STD

20151207_rjoo_77ja216j

JAL2407 RJOO-RJFK JA216J ERJ-170STD

RJOO 070200Z 05009KT 020V090 9999 FEW030 13/00 Q1026 RMK 1CU030 A3032

20151207_rjoo_78ja856a

ANA1638 RJOM-RJOO JA856A DHC8-402Q

20151207_rjoo_79ja214j

JAL2234 RJSC-RJOO JA214J ERJ-170STD

20151207_rjoo_80ja845a

ANA1625 RJOO-RJFT JA845A DHC8-402Q

20151207_rjoo_81ja65an

ANA -RJOO JA65AN B737-881

20151207_rjoo_82ja03rj

IBX75 RJOO-RJSF JA03RJ CRJ-200ER

20151207_rjoo_83ja704a

20151207_rjoo_84ja704a

ANA19 RJTT-RJOO JA704A B777-281

20151207_rjoo_85ja73an

ANA22 RJOO-RJTT JA73AN B737-881

20151207_rjoo_86ja220j

JAL2152 RJSA-RJOO JA220J ERJ-170STD

20151207_rjoo_87ja846a

ANA1653 RJOO-RJSK JA846A DHC8-402Q

20151207_rjoo_88ja226j

JAL2172 RJOO-RJSK JA226J ERJ-170STD

20151207_rjoo_89ja703a

ANA765 RJOO-ROAH JA703A B777-281

20151207_rjoo_90ja8674

ANA734 RJSS-RJOO JA8674 B767-381

20151207_rjoo_91ja001c

JAC2322 RJBT-RJOO JA001C SF34

20151207_rjoo_92ja8399

JAL114 RJOO-RJTT JA8399 B767-346

20151207_rjoo_93rdr

これにて公園を離脱。パークセンターに寄って展示されている管制卓をチェック。綺麗に維持されていました。後は伊丹駅へ向かう道すがら、飛び立つ機体を見送りました。

20151207_rjoo_94ja343j

JAL2005 RJOO-RJCC JA343J B737-846

20151207_rjoo_95ja65an

ANA1659 RJOO-RJSN JA65AN B737-881

RJOO 070300Z 01006KT 300V060 9999 FEW030 14/01 Q1026 RMK 1CU030 A3030

20151207_rjoo_96ja220j

JAL2173 RJOO-RJSK JA220J ERJ-170STD

20151207_rjoo_97ja226j

JAL2205 RJOO-RJSS JA226J ERJ-170STD

ざっと、赤組のエンブラエルが多いなと感じた時間でした。

|

« 冬日 大阪国際空港 2015/12/7 mon | トップページ | 撮納 富山空港 2015/12/30 wed »

大阪国際空港」カテゴリの記事

コメント

コメントを書く



(ウェブ上には掲載しません)


コメントは記事投稿者が公開するまで表示されません。



トラックバック


この記事へのトラックバック一覧です: 冬日2 大阪国際空港 2015/12/7 mon:

« 冬日 大阪国際空港 2015/12/7 mon | トップページ | 撮納 富山空港 2015/12/30 wed »